Terminal Aerodrome Forecast
Issued by NWS

Home | Current Version | Previous Version | Text Only | Print | Product List | Glossary On
Versions: 1 2 3 4 5 6 7 8 9 10 11 12 13 14 15 16 17 18
364
FTUS46 KMTR 260302 AAA
TAFSNS
TAF AMD
KSNS 260302Z 2603/2624 29006KT 4SM BR HZ OVC007
      TEMPO 2604/2608 1/2SM FG VV004
     FM260800 VRB04KT 1/2SM FG VV004
     FM261800 11004KT 3SM HZ FU SCT012
     FM262000 29010KT 6SM HZ FU SCT015=

USA.gov is the U.S. government's official web portal to all federal, state and local government web resources and services.